TNCM

Details ICAO TNCM (SXM)
Name Princess Juliana Int'l
Region Caribbean Netherlands, Aruba, Curaçao, Sint Maarten
Timezone Unknown
Plans Departing 2813
Arriving 4276
Stats Elevation 12 ft / 4 m (AMSL)
Location 18.040900° -63.108900°
Runways 1
Magnetic Variation 14.346° W
Sunrise 2018-09-24 10:02:55 UTC / 2018-09-24 10:02:55 Local
Sunset 2018-09-24 22:08:37 UTC / 2018-09-24 22:08:37 Local
Advertisement - Login to hide

Runways

ID Width Length Bearing (true/mag) Surface Threshold Overrun Markings Lighting
10 148 ft / 45 m 7,553 ft / 2,302 m 81.44° / 95.79° ASPHALT 331 ft / 101 m 164 ft / 50 m PREC-APP EDGE THRESHOLD REIL-OMNI
28 148 ft / 45 m 7,553 ft / 2,302 m 261.45° / 275.79° ASPHALT 0 ft / 0 m 200 ft / 61 m APP EDGE THRESHOLD

Map

Weather


0- 5 10 15 20 25 30 35+ Temperature / °C

Clouds and Precipitation
Forecast for 2018-09-25 00:00 UTC. Updated 6 hours ago

Ground ~20,000 ft ~40,000 ft Winds

METAR

TNCM 250300Z 09014KT 9999 SCT018 29/23 Q1016 A3002

TAF

TNCM 242339Z 2500/2524 08007KT P6SM VCTS SCT018CB TEMPO 2500/2504 VRB12G22KT SHRA BKN018 FM250400 09012KT P6SM VCTS SCT018CB BKN040 FM251450 10014KT P6SM -SHRA SCT022 BKN060

Frequencies

Tower 118.70 MHz JULIANA TWR
Recorded 127.65 MHz ATIS
Approach 128.95 MHz JULIANA APP
Departure 128.95 MHz JULIANA DEP
Warning: Do not use this data for real-world aviation or navigation. No guarantee of current accuracy is given.